Time;durP1;ratioP1;P1;durP2;ratioP2;P2;SDS_P1;SDS_P2;PMS_P1;PMS_P2;Temp;Humidity;BMP_temperature;BMP_pressure;BME280_temperature;BME280_humidity;BME280_pressure;Samples;Min_cycle;Max_cycle;Signal;HPM_P1;HPM_P2
2022/08/18 00:00:02;;;;;;;;;;;;;;;;;;;;;
2022/08/18 00:02:23;;;;;;;;;10.00;10.00;;;;;;;;4857216;29;45451;-95
2022/08/18 00:04:48;;;;;;;;;10.67;8.33;;;;;;;;4843973;29;45515;-94
2022/08/18 00:07:23;;;;;;;;;9.00;9.00;;;;;;;;4876389;29;45296;-94
2022/08/18 00:09:51;;;;;;;;;8.33;8.33;;;;;;;;4875611;29;46825;-93
2022/08/18 00:12:26;;;;;;;;;10.67;9.00;;;;;;;;4869795;29;45383;-95
2022/08/18 00:15:10;;;;;;;;;9.33;9.33;;;;;;;;4868099;28;45315;-95
2022/08/18 00:17:38;;;;;;;;;10.00;10.00;;;;;;;;4928103;28;45440;-94
2022/08/18 00:20:20;;;;;;;;;10.33;7.67;;;;;;;;4926493;28;47934;-94
2022/08/18 00:22:48;;;;;;;;;9.33;6.67;;;;;;;;4928229;28;45366;-95
2022/08/18 00:25:22;;;;;;;;;9.00;7.00;;;;;;;;4935162;28;45487;-94
2022/08/18 00:28:12;;;;;;;;;6.33;6.33;;;;;;;;4973800;28;45352;-95
2022/08/18 00:31:01;;;;;;;;;7.00;7.00;;;;;;;;4990602;28;47087;-94
2022/08/18 00:33:31;;;;;;;;;9.33;8.67;;;;;;;;4982489;28;45350;-94
2022/08/18 00:36:18;;;;;;;;;8.33;6.33;;;;;;;;4985625;28;45589;-95
2022/08/18 00:38:53;;;;;;;;;;;;;;;;;;;;;
2022/08/18 00:41:25;;;;;;;;;9.00;9.00;;;;;;;;4975303;28;75310;-94
2022/08/18 00:43:50;;;;;;;;;10.00;9.00;;;;;;;;4975916;28;45360;-94
2022/08/18 00:46:27;;;;;;;;;6.33;6.33;;;;;;;;4974768;28;45667;-94
2022/08/18 00:49:01;;;;;;;;;8.00;7.67;;;;;;;;4975786;28;45397;-95
2022/08/18 00:51:35;;;;;;;;;7.00;6.33;;;;;;;;4975345;28;48329;-95
2022/08/18 00:54:09;;;;;;;;;9.00;9.00;;;;;;;;4974662;28;45539;-95
2022/08/18 00:57:01;;;;;;;;;8.00;7.67;;;;;;;;4975282;28;45480;-95
2022/08/18 00:59:29;;;;;;;;;8.67;8.67;;;;;;;;4975201;28;45939;-94
2022/08/18 01:02:00;;;;;;;;;9.00;9.00;;;;;;;;4974239;28;47118;-93
2022/08/18 01:04:41;;;;;;;;;11.67;10.33;;;;;;;;4974600;28;45357;-93
2022/08/18 01:07:12;;;;;;;;;10.67;7.67;;;;;;;;4974885;28;45308;-94
2022/08/18 01:09:38;;;;;;;;;7.67;6.33;;;;;;;;4975037;28;45203;-95
2022/08/18 01:12:03;;;;;;;;;10.00;9.00;;;;;;;;4974678;28;48362;-95
2022/08/18 01:14:29;;;;;;;;;7.67;7.00;;;;;;;;4974710;28;45633;-95
2022/08/18 01:22:25;;;;;;;;;11.33;10.00;;;;;;;;4975745;28;45375;-94
2022/08/18 01:27:35;;;;;;;;;8.67;8.33;;;;;;;;4995772;28;45704;-93
2022/08/18 01:30:09;;;;;;;;;9.00;8.00;;;;;;;;4996257;28;45391;-93
2022/08/18 01:32:44;;;;;;;;;8.33;8.33;;;;;;;;4997678;28;48303;-95
2022/08/18 01:35:13;;;;;;;;;8.00;8.00;;;;;;;;4997206;28;45454;-94
2022/08/18 01:37:40;;;;;;;;;8.33;8.33;;;;;;;;4998101;28;45360;-93
2022/08/18 01:40:10;;;;;;;;;8.67;8.67;;;;;;;;4997046;28;45659;-94
2022/08/18 01:42:47;;;;;;;;;9.67;9.00;;;;;;;;4997551;28;47419;-94
2022/08/18 01:45:16;;;;;;;;;11.00;11.00;;;;;;;;4996574;28;45632;-94
2022/08/18 01:47:44;;;;;;;;;10.67;7.00;;;;;;;;4997875;28;45407;-95
2022/08/18 01:50:12;;;;;;;;;9.67;8.67;;;;;;;;4997305;28;45711;-93
2022/08/18 01:52:37;;;;;;;;;8.33;6.67;;;;;;;;4996608;28;47941;-94
2022/08/18 01:55:04;;;;;;;;;7.33;7.33;;;;;;;;4996680;28;45651;-95
2022/08/18 01:57:29;;;;;;;;;6.67;6.67;;;;;;;;5002696;28;45221;-95
2022/08/18 01:59:59;;;;;;;;;8.00;8.00;;;;;;;;5005347;28;45375;-93
2022/08/18 02:02:26;;;;;;;;;8.67;7.33;;;;;;;;5005865;28;47381;-94
2022/08/18 02:04:58;;;;;;;;;8.67;8.00;;;;;;;;5006172;28;45511;-94
2022/08/18 02:07:26;;;;;;;;;5.33;5.33;;;;;;;;5009396;28;45254;-94
2022/08/18 02:09:51;;;;;;;;;7.00;7.00;;;;;;;;5008475;28;45636;-95
2022/08/18 02:12:16;;;;;;;;;11.67;9.00;;;;;;;;5008909;28;47048;-93
2022/08/18 02:14:42;;;;;;;;;8.33;8.00;;;;;;;;5008422;28;45423;-94
2022/08/18 02:17:12;;;;;;;;;8.33;7.33;;;;;;;;5008695;28;45419;-93
2022/08/18 02:19:42;;;;;;;;;9.00;8.00;;;;;;;;5008314;28;45470;-94
2022/08/18 02:22:09;;;;;;;;;8.67;8.33;;;;;;;;5006459;28;47495;-93
2022/08/18 02:24:35;;;;;;;;;8.33;6.67;;;;;;;;4999868;28;45346;-94
2022/08/18 02:27:00;;;;;;;;;7.33;7.00;;;;;;;;4999660;28;45423;-93
2022/08/18 02:29:25;;;;;;;;;7.33;6.00;;;;;;;;4999594;28;45319;-95
2022/08/18 02:31:50;;;;;;;;;9.00;7.00;;;;;;;;4999226;28;47958;-94
2022/08/18 02:34:16;;;;;;;;;6.67;5.67;;;;;;;;5000005;28;45529;-94
2022/08/18 02:36:41;;;;;;;;;7.00;7.00;;;;;;;;5009629;28;45501;-93
2022/08/18 02:39:07;;;;;;;;;9.00;7.00;;;;;;;;4999399;28;45459;-93
2022/08/18 02:41:32;;;;;;;;;7.00;7.00;;;;;;;;4999557;28;48300;-93
2022/08/18 02:43:58;;;;;;;;;9.00;8.00;;;;;;;;4999381;28;45432;-94
2022/08/18 02:46:24;;;;;;;;;9.00;7.33;;;;;;;;4999709;28;45508;-94
2022/08/18 02:48:51;;;;;;;;;6.67;6.33;;;;;;;;5017292;28;45486;-94
2022/08/18 02:51:17;;;;;;;;;7.33;5.33;;;;;;;;4999676;28;47231;-94
2022/08/18 02:53:43;;;;;;;;;7.00;6.00;;;;;;;;4999286;28;45618;-95
2022/08/18 02:56:20;;;;;;;;;6.33;6.00;;;;;;;;4999446;28;45526;-94
2022/08/18 02:58:45;;;;;;;;;6.67;6.00;;;;;;;;4998871;28;45811;-94
2022/08/18 03:01:11;;;;;;;;;7.00;7.00;;;;;;;;4999023;28;46893;-94
2022/08/18 03:03:36;;;;;;;;;7.00;6.00;;;;;;;;4999352;28;45827;-94
2022/08/18 03:06:02;;;;;;;;;6.00;6.00;;;;;;;;4999276;28;45391;-93
2022/08/18 03:08:27;;;;;;;;;7.33;6.67;;;;;;;;4999181;28;45362;-94
2022/08/18 03:10:53;;;;;;;;;7.33;7.33;;;;;;;;4999437;28;47129;-94
2022/08/18 03:13:19;;;;;;;;;9.33;9.00;;;;;;;;4999159;28;45317;-95
2022/08/18 03:15:56;;;;;;;;;6.00;5.33;;;;;;;;4999162;28;45347;-95
2022/08/18 03:18:32;;;;;;;;;;;;;;;;;;;;;
2022/08/18 03:20:58;;;;;;;;;9.00;7.33;;;;;;;;5015947;28;75190;-95
2022/08/18 03:23:23;;;;;;;;;7.00;7.00;;;;;;;;4999276;28;45650;-94
2022/08/18 03:25:48;;;;;;;;;5.67;5.67;;;;;;;;4998253;28;45370;-94
2022/08/18 03:28:14;;;;;;;;;6.33;5.00;;;;;;;;4999394;28;45238;-94
2022/08/18 03:30:40;;;;;;;;;1.00;1.00;;;;;;;;4999386;28;47804;-94
2022/08/18 03:33:06;;;;;;;;;4.33;4.00;;;;;;;;4999024;28;45311;-94
2022/08/18 03:35:35;;;;;;;;;8.00;8.00;;;;;;;;4998965;28;45320;-94
2022/08/18 03:38:01;;;;;;;;;7.00;4.00;;;;;;;;5002288;28;45324;-94
2022/08/18 03:40:26;;;;;;;;;6.67;5.67;;;;;;;;5006212;28;47086;-94
2022/08/18 03:42:52;;;;;;;;;5.00;5.00;;;;;;;;5007208;28;45418;-93
2022/08/18 03:45:18;;;;;;;;;5.67;4.00;;;;;;;;5025081;28;45786;-93
2022/08/18 03:47:44;;;;;;;;;4.67;4.33;;;;;;;;5007268;28;45752;-94
2022/08/18 03:50:09;;;;;;;;;5.00;5.00;;;;;;;;5007103;28;48225;-95
2022/08/18 03:52:37;;;;;;;;;7.00;7.00;;;;;;;;5006695;28;45345;-94
2022/08/18 03:55:06;;;;;;;;;7.00;5.00;;;;;;;;5007106;28;45385;-94
2022/08/18 03:57:36;;;;;;;;;6.00;6.00;;;;;;;;5007839;28;45417;-95
2022/08/18 04:00:05;;;;;;;;;5.50;5.50;;;;;;;;5005356;28;47732;-94
2022/08/18 04:02:30;;;;;;;;;5.67;5.33;;;;;;;;4999148;28;45408;-95
2022/08/18 04:05:02;;;;;;;;;7.33;6.00;;;;;;;;4995290;28;45429;-94
2022/08/18 04:07:30;;;;;;;;;8.00;8.00;;;;;;;;4995662;28;45456;-95
2022/08/18 04:10:01;;;;;;;;;6.33;6.33;;;;;;;;4994522;28;47164;-95
2022/08/18 04:12:31;;;;;;;;;6.00;6.00;;;;;;;;4995484;28;45992;-94
2022/08/18 04:14:56;;;;;;;;;5.67;5.67;;;;;;;;4995540;28;45465;-93
2022/08/18 04:17:25;;;;;;;;;6.33;5.00;;;;;;;;4995146;28;45535;-95
2022/08/18 04:19:53;;;;;;;;;5.00;5.00;;;;;;;;4994722;28;47275;-94
2022/08/18 04:22:19;;;;;;;;;7.00;6.33;;;;;;;;4995250;28;45602;-94
2022/08/18 04:24:46;;;;;;;;;5.00;5.00;;;;;;;;4997889;28;45514;-94
2022/08/18 04:27:11;;;;;;;;;5.00;5.00;;;;;;;;4998147;28;45586;-94
2022/08/18 04:29:37;;;;;;;;;5.00;5.00;;;;;;;;4998066;28;47758;-95
2022/08/18 04:32:05;;;;;;;;;7.00;6.00;;;;;;;;4997809;28;46059;-94
2022/08/18 04:34:32;;;;;;;;;5.00;5.00;;;;;;;;4998416;28;45371;-94
2022/08/18 04:36:57;;;;;;;;;7.33;5.33;;;;;;;;4998359;28;45391;-94
2022/08/18 04:39:25;;;;;;;;;6.00;6.00;;;;;;;;4997961;28;48370;-95
2022/08/18 04:41:52;;;;;;;;;6.00;6.00;;;;;;;;4998029;28;45418;-94
2022/08/18 04:44:18;;;;;;;;;5.00;5.00;;;;;;;;4998512;28;45066;-94
2022/08/18 04:46:48;;;;;;;;;6.33;6.33;;;;;;;;4998277;28;45396;-95
2022/08/18 04:49:14;;;;;;;;;7.00;7.00;;;;;;;;4997974;28;47051;-95
2022/08/18 04:51:40;;;;;;;;;6.00;6.00;;;;;;;;4998142;28;45496;-94
2022/08/18 04:54:06;;;;;;;;;7.33;7.00;;;;;;;;4997605;28;45337;-95
2022/08/18 04:56:33;;;;;;;;;9.67;9.00;;;;;;;;4997090;28;45596;-93
2022/08/18 04:59:05;;;;;;;;;7.33;6.00;;;;;;;;4997834;28;48360;-94
2022/08/18 05:01:32;;;;;;;;;6.33;6.00;;;;;;;;4997366;28;45628;-94
2022/08/18 05:03:57;;;;;;;;;5.00;5.00;;;;;;;;5000283;28;45725;-93
2022/08/18 05:06:24;;;;;;;;;7.33;6.00;;;;;;;;5000800;28;45629;-94
2022/08/18 05:08:50;;;;;;;;;8.00;7.67;;;;;;;;5000641;28;48379;-94
2022/08/18 05:11:15;;;;;;;;;8.00;7.00;;;;;;;;5001398;28;45717;-94
2022/08/18 05:13:41;;;;;;;;;6.00;6.00;;;;;;;;5001412;28;45253;-94
2022/08/18 05:16:09;;;;;;;;;10.33;8.67;;;;;;;;5019141;28;45461;-94
2022/08/18 05:18:39;;;;;;;;;9.33;8.33;;;;;;;;5006891;28;47271;-94
2022/08/18 05:21:04;;;;;;;;;9.00;8.00;;;;;;;;5009537;28;45315;-94
2022/08/18 05:23:30;;;;;;;;;9.33;6.00;;;;;;;;5009213;28;45329;-94
2022/08/18 05:25:56;;;;;;;;;6.00;6.00;;;;;;;;5009220;28;45353;-94
2022/08/18 05:28:22;;;;;;;;;6.50;6.50;;;;;;;;5009359;28;48194;-94
2022/08/18 05:30:47;;;;;;;;;7.33;6.00;;;;;;;;5008010;28;45324;-93
2022/08/18 05:33:12;;;;;;;;;7.33;6.00;;;;;;;;5008640;28;45213;-95
2022/08/18 05:35:49;;;;;;;;;7.67;7.67;;;;;;;;5008279;28;45344;-94
2022/08/18 05:38:14;;;;;;;;;7.00;7.00;;;;;;;;5008192;28;47039;-94
2022/08/18 05:40:40;;;;;;;;;7.00;7.00;;;;;;;;5002804;28;45872;-93
2022/08/18 05:43:09;;;;;;;;;7.33;5.67;;;;;;;;5001395;28;45334;-95
2022/08/18 05:45:37;;;;;;;;;8.00;7.00;;;;;;;;5000650;28;45482;-94
2022/08/18 05:48:03;;;;;;;;;9.00;7.00;;;;;;;;5001135;28;47028;-94
2022/08/18 05:50:30;;;;;;;;;7.67;7.00;;;;;;;;5000509;28;45244;-94
2022/08/18 05:53:02;;;;;;;;;8.67;8.67;;;;;;;;5001162;28;45485;-94
2022/08/18 05:58:54;;;;;;;;;12.33;8.33;;;;;;;;5019263;28;45734;-95
2022/08/18 06:01:29;;;;;;;;;10.67;10.00;;;;;;;;5017373;28;45465;-95
2022/08/18 06:04:01;;;;;;;;;8.33;7.00;;;;;;;;4999697;28;45531;-94
2022/08/18 06:06:28;;;;;;;;;9.33;8.67;;;;;;;;4997790;28;45588;-94
2022/08/18 06:09:12;;;;;;;;;8.67;8.00;;;;;;;;4997230;28;47942;-95
2022/08/18 06:11:42;;;;;;;;;10.00;8.33;;;;;;;;4996985;28;45618;-93
2022/08/18 06:14:07;;;;;;;;;11.67;10.33;;;;;;;;4997035;28;45912;-94
2022/08/18 06:16:38;;;;;;;;;8.33;8.00;;;;;;;;4997014;28;45418;-95
2022/08/18 06:19:19;;;;;;;;;14.00;12.33;;;;;;;;4997578;28;47598;-94
2022/08/18 06:22:02;;;;;;;;;8.67;8.67;;;;;;;;4996567;28;46304;-94
2022/08/18 06:24:41;;;;;;;;;9.67;7.33;;;;;;;;5000321;28;45422;-93
2022/08/18 06:27:07;;;;;;;;;11.67;11.67;;;;;;;;4998249;28;45450;-85
2022/08/18 06:30:05;;;;;;;;;13.00;11.00;;;;;;;;5015975;28;46637;-87
2022/08/18 06:32:43;;;;;;;;;12.33;11.67;;;;;;;;5002934;28;45394;-85
2022/08/18 06:35:08;;;;;;;;;11.00;9.00;;;;;;;;5013863;28;45461;-85
2022/08/18 06:37:33;;;;;;;;;11.75;11.75;;;;;;;;5002421;28;45499;-84
2022/08/18 06:39:59;;;;;;;;;9.33;9.33;;;;;;;;5014237;28;46039;-83
2022/08/18 06:42:30;;;;;;;;;13.00;12.00;;;;;;;;5014870;28;45546;-84
2022/08/18 06:45:05;;;;;;;;;15.00;11.50;;;;;;;;4998054;28;45433;-83
2022/08/18 06:47:31;;;;;;;;;12.00;11.67;;;;;;;;4997740;28;45423;-86
2022/08/18 06:49:59;;;;;;;;;12.33;12.33;;;;;;;;4997134;28;48141;-84
2022/08/18 06:52:24;;;;;;;;;13.67;13.67;;;;;;;;4997832;28;45388;-86
2022/08/18 06:54:50;;;;;;;;;15.33;14.00;;;;;;;;4987151;28;45460;-87
2022/08/18 06:57:25;;;;;;;;;16.33;15.33;;;;;;;;4988464;28;45483;-87
2022/08/18 06:59:54;;;;;;;;;14.67;13.00;;;;;;;;4997402;28;47068;-86
2022/08/18 07:02:26;;;;;;;;;12.00;12.00;;;;;;;;5014946;28;45770;-87
2022/08/18 07:05:00;;;;;;;;;14.33;13.00;;;;;;;;4996547;28;45382;-87
2022/08/18 07:07:28;;;;;;;;;15.33;15.00;;;;;;;;4997674;28;45415;-87
2022/08/18 07:09:53;;;;;;;;;15.00;13.67;;;;;;;;4996488;28;47522;-86
2022/08/18 07:12:21;;;;;;;;;16.33;14.67;;;;;;;;5015268;28;45759;-87
2022/08/18 07:14:48;;;;;;;;;16.00;14.33;;;;;;;;5011094;28;46320;-86
2022/08/18 07:17:21;;;;;;;;;19.67;17.00;;;;;;;;4999591;28;45511;-87
2022/08/18 07:19:53;;;;;;;;;16.67;14.00;;;;;;;;4996363;28;47304;-86
2022/08/18 07:22:19;;;;;;;;;19.00;18.00;;;;;;;;5015303;28;45421;-87
2022/08/18 07:24:46;;;;;;;;;21.00;19.00;;;;;;;;4996238;28;45699;-87
2022/08/18 07:27:11;;;;;;;;;18.00;16.67;;;;;;;;5012637;28;45616;-87
2022/08/18 07:29:56;;;;;;;;;19.00;18.00;;;;;;;;4996492;28;47344;-87
2022/08/18 07:32:21;;;;;;;;;22.00;17.33;;;;;;;;4993579;28;45453;-87
2022/08/18 07:34:54;;;;;;;;;20.67;20.67;;;;;;;;4991653;28;45740;-87
2022/08/18 07:37:26;;;;;;;;;17.67;17.00;;;;;;;;5012513;28;45423;-86
2022/08/18 07:40:13;;;;;;;;;19.33;16.33;;;;;;;;4993929;28;45764;-86
2022/08/18 07:42:43;;;;;;;;;23.67;20.67;;;;;;;;4987521;28;45576;-87
2022/08/18 07:45:23;;;;;;;;;17.67;16.33;;;;;;;;4994505;28;45574;-87
2022/08/18 07:47:48;;;;;;;;;18.00;16.67;;;;;;;;4986034;28;45513;-87
2022/08/18 07:50:14;;;;;;;;;17.75;15.25;;;;;;;;4994241;28;46442;-87
2022/08/18 07:52:44;;;;;;;;;20.67;19.67;;;;;;;;4976774;28;45422;-87
2022/08/18 07:55:25;;;;;;;;;17.33;17.33;;;;;;;;5011718;28;45315;-87
2022/08/18 07:57:58;;;;;;;;;24.33;19.67;;;;;;;;5009363;28;45540;-87
2022/08/18 08:00:28;;;;;;;;;27.67;23.67;;;;;;;;4994580;28;48403;-87
2022/08/18 08:03:04;;;;;;;;;20.00;20.00;;;;;;;;4996031;28;45835;-86
2022/08/18 08:05:41;;;;;;;;;27.33;23.00;;;;;;;;5009997;28;45538;-85
2022/08/18 08:08:07;;;;;;;;;23.00;21.33;;;;;;;;4996180;28;45614;-86
2022/08/18 08:10:38;;;;;;;;;19.67;16.67;;;;;;;;5013194;28;46415;-86
2022/08/18 08:13:06;;;;;;;;;24.67;19.67;;;;;;;;4986078;28;45737;-86
2022/08/18 08:15:42;;;;;;;;;23.33;20.33;;;;;;;;4959754;28;45370;-86
2022/08/18 08:18:17;;;;;;;;;23.00;20.67;;;;;;;;4973673;28;45638;-86
2022/08/18 08:20:53;;;;;;;;;21.00;20.00;;;;;;;;4956189;28;47445;-86
2022/08/18 08:23:18;;;;;;;;;16.00;14.33;;;;;;;;4988243;28;45657;-86
2022/08/18 08:25:59;;;;;;;;;21.50;21.50;;;;;;;;4963459;28;45471;-86
2022/08/18 08:28:43;;;;;;;;;21.67;20.00;;;;;;;;4990571;28;45521;-85
2022/08/18 08:31:08;;;;;;;;;20.33;19.33;;;;;;;;4967726;28;47321;-86
2022/08/18 08:33:46;;;;;;;;;20.67;20.67;;;;;;;;4977387;28;45530;-86
2022/08/18 08:36:22;;;;;;;;;21.67;20.67;;;;;;;;4984530;28;45721;-89
2022/08/18 08:38:52;;;;;;;;;19.67;17.33;;;;;;;;4982835;28;45533;-85
2022/08/18 08:41:36;;;;;;;;;26.33;21.33;;;;;;;;5011230;28;45457;-87
2022/08/18 08:44:08;;;;;;;;;24.00;20.67;;;;;;;;4999329;28;45549;-86
2022/08/18 08:46:44;;;;;;;;;20.67;18.00;;;;;;;;4998978;28;45417;-85
2022/08/18 08:49:22;;;;;;;;;25.67;24.00;;;;;;;;4998275;28;45576;-86
2022/08/18 08:51:50;;;;;;;;;21.00;19.67;;;;;;;;4968874;28;48475;-86
2022/08/18 08:54:22;;;;;;;;;18.67;18.67;;;;;;;;4996260;28;45455;-86
2022/08/18 08:56:49;;;;;;;;;19.33;17.67;;;;;;;;4995586;28;45440;-87
2022/08/18 08:59:17;;;;;;;;;22.33;20.00;;;;;;;;4997155;28;45373;-87
2022/08/18 09:01:50;;;;;;;;;17.67;17.67;;;;;;;;4959707;28;48362;-87
2022/08/18 09:04:23;;;;;;;;;22.67;20.00;;;;;;;;4977977;28;45418;-87
2022/08/18 09:07:07;;;;;;;;;20.00;17.00;;;;;;;;4996005;28;45437;-88
2022/08/18 09:09:51;;;;;;;;;27.33;23.00;;;;;;;;4983855;28;45433;-88
2022/08/18 09:12:35;;;;;;;;;18.00;18.00;;;;;;;;5002271;28;45473;-88
2022/08/18 09:15:24;;;;;;;;;16.67;15.00;;;;;;;;4980297;28;45921;-88
2022/08/18 09:17:55;;;;;;;;;18.67;18.33;;;;;;;;4975668;28;45340;-88
2022/08/18 09:20:39;;;;;;;;;19.00;17.33;;;;;;;;4991634;28;45620;-88
2022/08/18 09:23:09;;;;;;;;;19.67;18.00;;;;;;;;4996546;28;46514;-88
2022/08/18 09:25:40;;;;;;;;;16.33;16.33;;;;;;;;4987200;28;45444;-89
2022/08/18 09:28:15;;;;;;;;;20.33;16.33;;;;;;;;4994907;28;45464;-88
2022/08/18 09:30:43;;;;;;;;;21.67;20.00;;;;;;;;4995191;28;45622;-88
2022/08/18 09:33:28;;;;;;;;;21.00;15.67;;;;;;;;4994783;28;48102;-88
2022/08/18 09:36:11;;;;;;;;;25.00;19.33;;;;;;;;4986300;28;45812;-89
2022/08/18 09:41:32;;;;;;;;;22.00;19.67;;;;;;;;4987387;28;45363;-89
2022/08/18 09:44:12;;;;;;;;;24.67;20.33;;;;;;;;4988457;28;47207;-87
2022/08/18 09:46:47;;;;;;;;;22.00;17.67;;;;;;;;4977329;28;46328;-86
2022/08/18 09:49:21;;;;;;;;;17.00;16.67;;;;;;;;4992701;28;45418;-86
2022/08/18 09:51:47;;;;;;;;;17.33;15.00;;;;;;;;4988573;28;45474;-85
2022/08/18 09:54:17;;;;;;;;;19.33;17.67;;;;;;;;4986835;28;47225;-87
2022/08/18 09:56:48;;;;;;;;;19.00;16.33;;;;;;;;4984785;28;45485;-87
2022/08/18 09:59:49;;;;;;;;;21.00;19.67;;;;;;;;4993153;28;45403;-86
2022/08/18 10:02:30;;;;;;;;;20.00;18.00;;;;;;;;4917097;28;45797;-87
2022/08/18 10:05:14;;;;;;;;;18.67;18.00;;;;;;;;4935445;28;46686;-87
2022/08/18 10:07:41;;;;;;;;;16.67;16.67;;;;;;;;4937564;28;45557;-86
2022/08/18 10:10:07;;;;;;;;;22.00;18.33;;;;;;;;4932638;28;45575;-87
2022/08/18 10:12:55;;;;;;;;;22.33;18.67;;;;;;;;4939487;28;45576;-87
2022/08/18 10:15:28;;;;;;;;;19.33;17.33;;;;;;;;4953711;28;47228;-87
2022/08/18 10:18:19;;;;;;;;;17.33;16.33;;;;;;;;4953019;28;45528;-88
2022/08/18 10:20:59;;;;;;;;;20.67;17.33;;;;;;;;4937348;28;46064;-87
2022/08/18 10:23:42;;;;;;;;;22.00;20.00;;;;;;;;4932482;28;45644;-88
2022/08/18 10:26:40;;;;;;;;;18.00;17.00;;;;;;;;4933080;28;46302;-89
2022/08/18 10:29:28;;;;;;;;;18.67;17.33;;;;;;;;4842226;29;45518;-87
2022/08/18 10:31:54;;;;;;;;;17.00;13.00;;;;;;;;4837546;29;45421;-88
2022/08/18 10:34:38;;;;;;;;;18.33;15.00;;;;;;;;4840804;29;45359;-90
2022/08/18 10:37:11;;;;;;;;;17.00;16.00;;;;;;;;4853740;28;46385;-87
2022/08/18 10:39:36;;;;;;;;;19.00;16.67;;;;;;;;4914517;28;45442;-86
2022/08/18 10:42:05;;;;;;;;;18.25;17.00;;;;;;;;4914964;28;45423;-88
2022/08/18 10:44:33;;;;;;;;;19.33;17.00;;;;;;;;4901477;28;45331;-90
2022/08/18 10:46:59;;;;;;;;;19.33;18.33;;;;;;;;4900001;28;47192;-88
2022/08/18 10:49:26;;;;;;;;;17.00;15.00;;;;;;;;4914908;28;45846;-89
2022/08/18 10:51:57;;;;;;;;;17.33;14.67;;;;;;;;4917425;28;45386;-87
2022/08/18 10:54:22;;;;;;;;;15.33;13.67;;;;;;;;4915285;28;45692;-87
2022/08/18 10:56:50;;;;;;;;;13.00;12.00;;;;;;;;4914250;28;46259;-86
2022/08/18 10:59:19;;;;;;;;;11.67;11.67;;;;;;;;4899488;28;45669;-89
2022/08/18 11:01:52;;;;;;;;;13.67;12.33;;;;;;;;4899349;28;45511;-86
2022/08/18 11:04:25;;;;;;;;;11.67;11.67;;;;;;;;4940593;28;47088;-86
2022/08/18 11:06:55;;;;;;;;;10.00;9.33;;;;;;;;4997407;28;48185;-87
2022/08/18 11:09:25;;;;;;;;;10.00;10.00;;;;;;;;4978117;28;45478;-87
2022/08/18 11:11:51;;;;;;;;;10.00;10.00;;;;;;;;4963448;28;45454;-87
2022/08/18 11:14:16;;;;;;;;;10.67;9.67;;;;;;;;4977113;28;45376;-86
2022/08/18 11:16:41;;;;;;;;;10.50;10.50;;;;;;;;4993771;28;47249;-86
2022/08/18 11:19:15;;;;;;;;;9.00;8.50;;;;;;;;4992383;28;45730;-86
2022/08/18 11:21:42;;;;;;;;;9.67;9.67;;;;;;;;4995147;28;45508;-91
2022/08/18 11:24:14;;;;;;;;;9.00;9.00;;;;;;;;4976117;28;45425;-87
2022/08/18 11:26:41;;;;;;;;;8.33;8.33;;;;;;;;4976334;28;47318;-88
2022/08/18 11:29:20;;;;;;;;;9.00;9.00;;;;;;;;4994636;28;45460;-88
2022/08/18 11:31:45;;;;;;;;;10.67;9.33;;;;;;;;4977590;28;45444;-88
2022/08/18 11:34:15;;;;;;;;;10.67;10.67;;;;;;;;4991322;28;45542;-88
2022/08/18 11:36:41;;;;;;;;;11.00;9.67;;;;;;;;4957728;28;48284;-87
2022/08/18 11:39:10;;;;;;;;;9.67;9.67;;;;;;;;4988386;28;46416;-87
2022/08/18 11:41:36;;;;;;;;;11.33;11.33;;;;;;;;4972451;28;45623;-87
2022/08/18 11:44:04;;;;;;;;;10.33;9.00;;;;;;;;4989722;28;45519;-88
2022/08/18 11:46:36;;;;;;;;;9.33;8.00;;;;;;;;4975996;28;46928;-88
2022/08/18 11:49:12;;;;;;;;;8.00;8.00;;;;;;;;4978979;28;45399;-88
2022/08/18 11:51:51;;;;;;;;;7.67;7.00;;;;;;;;4979275;28;45674;-89
2022/08/18 11:54:21;;;;;;;;;9.67;8.33;;;;;;;;4992633;28;45425;-88
2022/08/18 11:56:47;;;;;;;;;7.00;7.00;;;;;;;;4977536;28;47467;-89
2022/08/18 11:59:24;;;;;;;;;10.00;9.00;;;;;;;;4990985;28;45485;-87
2022/08/18 12:01:50;;;;;;;;;8.00;8.00;;;;;;;;5004173;28;45738;-88
2022/08/18 12:04:19;;;;;;;;;8.00;8.00;;;;;;;;4987954;28;46684;-89
2022/08/18 12:06:54;;;;;;;;;8.33;7.00;;;;;;;;5007394;28;48464;-90
2022/08/18 12:09:25;;;;;;;;;8.00;7.67;;;;;;;;4993630;28;45926;-90
2022/08/18 12:11:55;;;;;;;;;9.33;9.33;;;;;;;;4994625;28;45473;-88
2022/08/18 12:14:22;;;;;;;;;8.33;7.33;;;;;;;;5007613;28;45494;-88
2022/08/18 12:16:47;;;;;;;;;8.33;8.00;;;;;;;;4990039;28;47925;-88
2022/08/18 12:19:13;;;;;;;;;6.33;6.33;;;;;;;;4989518;28;45773;-88
2022/08/18 12:21:39;;;;;;;;;8.33;8.33;;;;;;;;5006416;28;46105;-86
2022/08/18 12:24:08;;;;;;;;;8.00;8.00;;;;;;;;4993600;28;45773;-87
2022/08/18 12:26:34;;;;;;;;;6.67;6.67;;;;;;;;4991758;28;48522;-87
2022/08/18 12:28:59;;;;;;;;;7.00;6.33;;;;;;;;5010374;28;45390;-87
2022/08/18 12:31:24;;;;;;;;;7.00;7.00;;;;;;;;5011351;28;45342;-87
2022/08/18 12:33:49;;;;;;;;;7.33;7.33;;;;;;;;4992514;28;45576;-87
2022/08/18 12:36:14;;;;;;;;;10.67;9.00;;;;;;;;5011223;28;46688;-86
2022/08/18 12:38:42;;;;;;;;;8.67;8.00;;;;;;;;4993406;28;46034;-86
2022/08/18 12:41:10;;;;;;;;;8.67;8.67;;;;;;;;5008452;28;45487;-86
2022/08/18 12:43:35;;;;;;;;;9.33;7.67;;;;;;;;5011361;28;45585;-86
2022/08/18 12:46:01;;;;;;;;;7.00;7.00;;;;;;;;4988805;28;47223;-84
2022/08/18 12:48:28;;;;;;;;;9.00;7.00;;;;;;;;4991806;28;45746;-85
2022/08/18 12:50:53;;;;;;;;;7.67;7.67;;;;;;;;5012857;28;45414;-85
2022/08/18 12:53:19;;;;;;;;;10.00;10.00;;;;;;;;5012232;28;45578;-85
2022/08/18 12:55:44;;;;;;;;;8.33;7.67;;;;;;;;5012262;28;45445;-86
2022/08/18 12:58:10;;;;;;;;;7.67;7.67;;;;;;;;4994506;28;45567;-86
2022/08/18 13:00:35;;;;;;;;;8.67;8.33;;;;;;;;4994777;28;45488;-86
2022/08/18 13:03:00;;;;;;;;;7.33;7.33;;;;;;;;5012824;28;45429;-86
2022/08/18 13:05:26;;;;;;;;;8.00;8.00;;;;;;;;5011655;28;46454;-86
2022/08/18 13:07:51;;;;;;;;;8.33;8.33;;;;;;;;5006898;28;45884;-86
2022/08/18 13:10:16;;;;;;;;;8.00;8.00;;;;;;;;4994687;28;45702;-86
2022/08/18 13:12:42;;;;;;;;;7.67;7.67;;;;;;;;4994649;28;45587;-85
2022/08/18 13:15:08;;;;;;;;;6.33;6.33;;;;;;;;5012726;28;45519;-86
2022/08/18 13:17:34;;;;;;;;;8.33;8.33;;;;;;;;4996416;28;45564;-86
2022/08/18 13:20:08;;;;;;;;;7.33;7.33;;;;;;;;5009290;28;45559;-86
2022/08/18 13:22:33;;;;;;;;;7.67;5.33;;;;;;;;4987831;28;45372;-86
2022/08/18 13:25:03;;;;;;;;;6.33;6.33;;;;;;;;4996461;28;48252;-86
2022/08/18 13:27:28;;;;;;;;;6.00;6.00;;;;;;;;4997758;28;45459;-86
2022/08/18 13:29:53;;;;;;;;;5.67;5.67;;;;;;;;4997860;28;45518;-88
2022/08/18 13:32:18;;;;;;;;;6.67;6.67;;;;;;;;5000876;28;45609;-88
2022/08/18 13:34:43;;;;;;;;;7.00;7.00;;;;;;;;4989515;28;48063;-86
2022/08/18 13:37:09;;;;;;;;;6.67;6.67;;;;;;;;5015572;28;45618;-85
2022/08/18 13:39:34;;;;;;;;;4.33;4.33;;;;;;;;5014391;28;45288;-87
2022/08/18 13:42:00;;;;;;;;;7.33;6.33;;;;;;;;4984338;28;45496;-87
2022/08/18 13:44:25;;;;;;;;;7.00;6.00;;;;;;;;4985182;28;47035;-87
2022/08/18 13:46:53;;;;;;;;;6.00;6.00;;;;;;;;4999358;28;45670;-86
2022/08/18 13:49:19;;;;;;;;;8.00;8.00;;;;;;;;5014706;28;45901;-87
2022/08/18 13:51:46;;;;;;;;;5.00;4.33;;;;;;;;4997396;28;45755;-87
2022/08/18 13:54:15;;;;;;;;;5.67;5.67;;;;;;;;4988339;28;47066;-88
2022/08/18 13:56:40;;;;;;;;;5.00;5.00;;;;;;;;5010573;28;45383;-86
2022/08/18 13:59:06;;;;;;;;;5.33;5.33;;;;;;;;4988569;28;45498;-87
2022/08/18 14:01:31;;;;;;;;;7.00;5.33;;;;;;;;5007294;28;45689;-88
2022/08/18 14:03:57;;;;;;;;;6.33;5.00;;;;;;;;5009320;28;45525;-88
2022/08/18 14:06:22;;;;;;;;;7.00;6.00;;;;;;;;4999553;28;45699;-89
2022/08/18 14:08:48;;;;;;;;;4.33;4.33;;;;;;;;4995893;28;45805;-87
2022/08/18 14:11:13;;;;;;;;;4.67;4.67;;;;;;;;5020046;28;45525;-88
2022/08/18 14:13:38;;;;;;;;;5.67;5.67;;;;;;;;4999950;28;47441;-88
2022/08/18 14:16:04;;;;;;;;;4.33;4.33;;;;;;;;5003375;28;45372;-88
2022/08/18 14:18:29;;;;;;;;;5.33;5.33;;;;;;;;5013639;28;45549;-89
2022/08/18 14:29:06;;;;;;;;;4.67;4.67;;;;;;;;5014672;28;45831;-90
2022/08/18 14:31:32;;;;;;;;;6.67;6.67;;;;;;;;4998034;28;45692;-92
2022/08/18 14:33:57;;;;;;;;;5.00;5.00;;;;;;;;4998286;28;46070;-92
2022/08/18 14:36:23;;;;;;;;;5.67;5.33;;;;;;;;5005619;28;45526;-96
2022/08/18 14:38:49;;;;;;;;;7.00;6.33;;;;;;;;4998907;28;45471;-93
2022/08/18 14:41:14;;;;;;;;;5.00;5.00;;;;;;;;4996781;28;45605;-92
2022/08/18 14:43:39;;;;;;;;;7.67;7.67;;;;;;;;4998140;28;47588;-92
2022/08/18 14:46:04;;;;;;;;;7.00;7.00;;;;;;;;4998361;28;46039;-93
2022/08/18 14:48:30;;;;;;;;;8.00;8.00;;;;;;;;4997348;28;45391;-93
2022/08/18 14:50:57;;;;;;;;;16.33;14.33;;;;;;;;5012936;28;45688;-92
2022/08/18 14:53:26;;;;;;;;;14.33;13.67;;;;;;;;4986485;28;48146;-91
2022/08/18 14:55:51;;;;;;;;;21.00;17.00;;;;;;;;4992709;28;45523;-91
2022/08/18 14:58:20;;;;;;;;;10.33;9.00;;;;;;;;5010945;28;45394;-90
2022/08/18 15:00:46;;;;;;;;;13.67;12.00;;;;;;;;5008978;28;46445;-93
2022/08/18 15:03:11;;;;;;;;;11.67;11.67;;;;;;;;4993295;28;48070;-92
2022/08/18 15:05:37;;;;;;;;;16.00;15.00;;;;;;;;5009737;28;45630;-92
2022/08/18 15:08:05;;;;;;;;;11.33;9.33;;;;;;;;5017160;28;45358;-90
2022/08/18 15:10:31;;;;;;;;;12.00;9.67;;;;;;;;4988338;28;45477;-89
2022/08/18 15:13:02;;;;;;;;;11.00;9.33;;;;;;;;5016937;28;46492;-91